sensor_id;sensor_type;location;lat;lon;timestamp;pressure;altitude;pressure_sealevel;temperature;humidity
19447;BME280;9862;49.462;11.054;2022-11-28T00:00:45;98200.72;;;6.74;100.00
19447;BME280;9862;49.462;11.054;2022-11-28T00:03:11;98202.09;;;6.84;100.00
19447;BME280;9862;49.462;11.054;2022-11-28T00:05:38;98201.38;;;6.76;100.00
19447;BME280;9862;49.462;11.054;2022-11-28T00:08:04;98196.19;;;6.82;100.00
19447;BME280;9862;49.462;11.054;2022-11-28T00:10:31;98198.63;;;6.84;100.00
19447;BME280;9862;49.462;11.054;2022-11-28T00:12:59;98196.81;;;6.84;100.00
19447;BME280;9862;49.462;11.054;2022-11-28T00:15:25;98199.31;;;6.86;100.00
19447;BME280;9862;49.462;11.054;2022-11-28T00:17:52;98195.00;;;7.00;100.00
19447;BME280;9862;49.462;11.054;2022-11-28T00:20:19;98193.75;;;6.96;100.00
19447;BME280;9862;49.462;11.054;2022-11-28T00:22:45;98183.88;;;6.89;100.00
19447;BME280;9862;49.462;11.054;2022-11-28T00:25:12;98176.56;;;6.92;100.00
19447;BME280;9862;49.462;11.054;2022-11-28T00:27:38;98171.66;;;6.88;100.00
19447;BME280;9862;49.462;11.054;2022-11-28T00:30:08;98175.31;;;6.87;100.00
19447;BME280;9862;49.462;11.054;2022-11-28T00:32:34;98176.94;;;6.88;100.00
19447;BME280;9862;49.462;11.054;2022-11-28T00:35:01;98173.75;;;6.93;100.00
19447;BME280;9862;49.462;11.054;2022-11-28T00:37:28;98168.56;;;7.00;100.00
19447;BME280;9862;49.462;11.054;2022-11-28T00:39:54;98155.25;;;7.08;100.00
19447;BME280;9862;49.462;11.054;2022-11-28T00:42:21;98151.22;;;7.12;100.00
19447;BME280;9862;49.462;11.054;2022-11-28T00:44:48;98144.63;;;7.37;100.00
19447;BME280;9862;49.462;11.054;2022-11-28T00:47:16;98140.53;;;7.20;100.00
19447;BME280;9862;49.462;11.054;2022-11-28T00:49:42;98141.38;;;7.06;100.00
19447;BME280;9862;49.462;11.054;2022-11-28T00:52:09;98128.03;;;7.14;100.00
19447;BME280;9862;49.462;11.054;2022-11-28T00:54:36;98132.44;;;7.07;100.00
19447;BME280;9862;49.462;11.054;2022-11-28T00:57:03;98132.72;;;6.97;100.00
19447;BME280;9862;49.462;11.054;2022-11-28T00:59:29;98118.91;;;7.02;100.00
19447;BME280;9862;49.462;11.054;2022-11-28T01:01:56;98125.50;;;7.06;100.00
19447;BME280;9862;49.462;11.054;2022-11-28T01:04:24;98121.38;;;7.03;100.00
19447;BME280;9862;49.462;11.054;2022-11-28T01:06:52;98114.25;;;7.04;100.00
19447;BME280;9862;49.462;11.054;2022-11-28T01:09:20;98119.44;;;7.12;100.00
19447;BME280;9862;49.462;11.054;2022-11-28T01:11:48;98127.19;;;7.13;100.00
19447;BME280;9862;49.462;11.054;2022-11-28T01:14:16;98131.31;;;7.16;100.00
19447;BME280;9862;49.462;11.054;2022-11-28T01:16:44;98134.22;;;7.21;100.00
19447;BME280;9862;49.462;11.054;2022-11-28T01:19:11;98125.06;;;7.38;100.00
19447;BME280;9862;49.462;11.054;2022-11-28T01:21:40;98125.22;;;7.15;100.00
19447;BME280;9862;49.462;11.054;2022-11-28T01:24:07;98126.50;;;7.05;100.00
19447;BME280;9862;49.462;11.054;2022-11-28T01:26:34;98112.28;;;7.06;100.00
19447;BME280;9862;49.462;11.054;2022-11-28T01:29:00;98102.13;;;7.09;100.00
19447;BME280;9862;49.462;11.054;2022-11-28T01:31:28;98092.34;;;7.25;100.00
19447;BME280;9862;49.462;11.054;2022-11-28T01:33:56;98091.88;;;7.21;100.00
19447;BME280;9862;49.462;11.054;2022-11-28T01:36:23;98082.69;;;7.17;100.00
19447;BME280;9862;49.462;11.054;2022-11-28T01:38:52;98074.28;;;7.13;100.00
19447;BME280;9862;49.462;11.054;2022-11-28T01:41:21;98070.22;;;7.32;100.00
19447;BME280;9862;49.462;11.054;2022-11-28T01:44:03;98070.47;;;7.16;100.00
19447;BME280;9862;49.462;11.054;2022-11-28T01:46:30;98066.34;;;7.13;100.00
19447;BME280;9862;49.462;11.054;2022-11-28T01:49:00;98071.72;;;7.20;100.00
19447;BME280;9862;49.462;11.054;2022-11-28T01:51:29;98065.06;;;7.24;100.00
19447;BME280;9862;49.462;11.054;2022-11-28T01:53:57;98057.81;;;7.33;100.00
19447;BME280;9862;49.462;11.054;2022-11-28T01:56:27;98062.47;;;7.31;100.00
19447;BME280;9862;49.462;11.054;2022-11-28T01:58:58;98048.22;;;7.32;100.00
19447;BME280;9862;49.462;11.054;2022-11-28T02:01:27;98049.22;;;7.31;100.00
19447;BME280;9862;49.462;11.054;2022-11-28T02:03:54;98044.88;;;7.23;100.00
19447;BME280;9862;49.462;11.054;2022-11-28T02:06:23;98048.00;;;7.12;100.00
19447;BME280;9862;49.462;11.054;2022-11-28T02:08:50;98040.59;;;7.22;100.00
19447;BME280;9862;49.462;11.054;2022-11-28T02:11:39;98037.13;;;7.22;100.00
19447;BME280;9862;49.462;11.054;2022-11-28T02:14:16;98041.47;;;7.29;100.00
19447;BME280;9862;49.462;11.054;2022-11-28T02:16:57;98054.31;;;7.11;100.00
19447;BME280;9862;49.462;11.054;2022-11-28T02:22:47;98051.31;;;6.99;100.00
19447;BME280;9862;49.462;11.054;2022-11-28T02:25:32;98041.13;;;6.96;100.00
19447;BME280;9862;49.462;11.054;2022-11-28T02:28:43;98035.31;;;6.86;100.00
19447;BME280;9862;49.462;11.054;2022-11-28T02:31:25;98042.22;;;6.87;100.00
19447;BME280;9862;49.462;11.054;2022-11-28T02:33:59;98036.66;;;6.97;100.00
19447;BME280;9862;49.462;11.054;2022-11-28T02:36:29;98030.63;;;6.73;100.00
19447;BME280;9862;49.462;11.054;2022-11-28T02:39:02;98029.00;;;6.72;100.00
19447;BME280;9862;49.462;11.054;2022-11-28T02:41:38;98021.88;;;6.73;100.00
19447;BME280;9862;49.462;11.054;2022-11-28T02:44:11;98013.22;;;6.79;100.00
19447;BME280;9862;49.462;11.054;2022-11-28T02:46:45;98010.38;;;6.80;100.00
19447;BME280;9862;49.462;11.054;2022-11-28T02:49:18;97999.38;;;6.77;100.00
19447;BME280;9862;49.462;11.054;2022-11-28T02:51:49;97976.31;;;6.71;100.00
19447;BME280;9862;49.462;11.054;2022-11-28T02:54:20;97965.53;;;6.72;100.00
19447;BME280;9862;49.462;11.054;2022-11-28T02:56:47;97948.75;;;6.65;100.00
19447;BME280;9862;49.462;11.054;2022-11-28T02:59:28;97929.72;;;6.70;100.00
19447;BME280;9862;49.462;11.054;2022-11-28T03:01:56;97950.53;;;6.58;100.00
19447;BME280;9862;49.462;11.054;2022-11-28T03:04:30;97961.22;;;6.50;100.00
19447;BME280;9862;49.462;11.054;2022-11-28T03:07:05;97961.00;;;6.37;100.00
19447;BME280;9862;49.462;11.054;2022-11-28T03:09:52;97941.00;;;6.27;100.00
19447;BME280;9862;49.462;11.054;2022-11-28T03:12:28;97934.06;;;6.26;100.00
19447;BME280;9862;49.462;11.054;2022-11-28T03:15:01;97952.84;;;6.31;100.00
19447;BME280;9862;49.462;11.054;2022-11-28T03:17:38;97951.34;;;6.44;100.00
19447;BME280;9862;49.462;11.054;2022-11-28T03:20:15;97950.81;;;6.48;100.00
19447;BME280;9862;49.462;11.054;2022-11-28T03:22:54;97942.69;;;6.50;100.00
19447;BME280;9862;49.462;11.054;2022-11-28T03:25:26;97939.50;;;6.54;100.00
19447;BME280;9862;49.462;11.054;2022-11-28T03:28:01;97939.72;;;6.74;100.00
19447;BME280;9862;49.462;11.054;2022-11-28T03:30:34;97934.28;;;6.61;100.00
19447;BME280;9862;49.462;11.054;2022-11-28T03:33:02;97933.47;;;6.60;100.00
19447;BME280;9862;49.462;11.054;2022-11-28T03:35:35;97915.25;;;6.51;100.00
19447;BME280;9862;49.462;11.054;2022-11-28T03:38:10;97899.63;;;6.56;100.00
19447;BME280;9862;49.462;11.054;2022-11-28T03:40:40;97890.25;;;6.68;100.00
19447;BME280;9862;49.462;11.054;2022-11-28T03:43:10;97873.16;;;6.71;100.00
19447;BME280;9862;49.462;11.054;2022-11-28T03:45:40;97878.38;;;6.64;100.00
19447;BME280;9862;49.462;11.054;2022-11-28T03:48:14;97897.59;;;6.73;100.00
19447;BME280;9862;49.462;11.054;2022-11-28T03:50:46;97902.88;;;6.73;100.00
19447;BME280;9862;49.462;11.054;2022-11-28T03:53:17;97918.13;;;6.92;100.00
19447;BME280;9862;49.462;11.054;2022-11-28T03:55:48;97933.50;;;6.82;100.00
19447;BME280;9862;49.462;11.054;2022-11-28T03:58:23;97931.88;;;6.81;100.00
19447;BME280;9862;49.462;11.054;2022-11-28T04:00:58;97910.16;;;6.85;100.00
19447;BME280;9862;49.462;11.054;2022-11-28T04:03:35;97907.22;;;6.95;100.00
19447;BME280;9862;49.462;11.054;2022-11-28T04:06:13;97906.31;;;7.09;100.00
19447;BME280;9862;49.462;11.054;2022-11-28T04:08:44;97914.22;;;7.31;100.00
19447;BME280;9862;49.462;11.054;2022-11-28T04:11:15;97917.28;;;7.28;100.00
19447;BME280;9862;49.462;11.054;2022-11-28T04:13:49;97913.19;;;7.25;100.00
19447;BME280;9862;49.462;11.054;2022-11-28T04:16:19;97916.06;;;7.30;100.00
19447;BME280;9862;49.462;11.054;2022-11-28T04:18:51;97913.28;;;7.38;100.00
19447;BME280;9862;49.462;11.054;2022-11-28T04:21:26;97912.22;;;7.33;100.00
19447;BME280;9862;49.462;11.054;2022-11-28T04:23:55;97935.72;;;7.42;100.00
19447;BME280;9862;49.462;11.054;2022-11-28T04:26:31;97961.25;;;7.29;100.00
19447;BME280;9862;49.462;11.054;2022-11-28T04:28:59;97937.28;;;6.94;100.00
19447;BME280;9862;49.462;11.054;2022-11-28T04:31:29;97927.28;;;6.89;100.00
19447;BME280;9862;49.462;11.054;2022-11-28T04:33:59;97908.84;;;6.96;100.00
19447;BME280;9862;49.462;11.054;2022-11-28T04:36:29;97905.41;;;7.02;100.00
19447;BME280;9862;49.462;11.054;2022-11-28T04:38:59;97899.19;;;7.10;100.00
19447;BME280;9862;49.462;11.054;2022-11-28T04:41:32;97915.97;;;7.17;100.00
19447;BME280;9862;49.462;11.054;2022-11-28T04:44:04;97924.47;;;7.34;100.00
19447;BME280;9862;49.462;11.054;2022-11-28T04:46:39;97935.19;;;7.26;100.00
19447;BME280;9862;49.462;11.054;2022-11-28T04:49:07;97951.09;;;7.11;100.00
19447;BME280;9862;49.462;11.054;2022-11-28T04:51:41;97946.22;;;6.93;100.00
19447;BME280;9862;49.462;11.054;2022-11-28T04:54:15;97947.03;;;6.94;100.00
19447;BME280;9862;49.462;11.054;2022-11-28T04:56:46;97951.88;;;6.69;100.00
19447;BME280;9862;49.462;11.054;2022-11-28T04:59:15;97944.34;;;6.51;100.00
19447;BME280;9862;49.462;11.054;2022-11-28T05:01:45;97949.16;;;6.62;100.00
19447;BME280;9862;49.462;11.054;2022-11-28T05:04:13;97945.53;;;6.34;100.00
19447;BME280;9862;49.462;11.054;2022-11-28T05:06:43;97941.34;;;6.24;100.00
19447;BME280;9862;49.462;11.054;2022-11-28T05:09:10;97934.25;;;6.40;100.00
19447;BME280;9862;49.462;11.054;2022-11-28T05:11:37;97922.38;;;6.36;100.00
19447;BME280;9862;49.462;11.054;2022-11-28T05:14:04;97908.88;;;6.45;100.00
19447;BME280;9862;49.462;11.054;2022-11-28T05:16:30;97891.78;;;6.63;100.00
19447;BME280;9862;49.462;11.054;2022-11-28T05:18:57;97878.19;;;6.66;100.00
19447;BME280;9862;49.462;11.054;2022-11-28T05:21:24;97877.88;;;6.75;100.00
19447;BME280;9862;49.462;11.054;2022-11-28T05:23:52;97872.94;;;6.87;100.00
19447;BME280;9862;49.462;11.054;2022-11-28T05:26:19;97872.97;;;6.94;100.00
19447;BME280;9862;49.462;11.054;2022-11-28T05:28:48;97860.41;;;6.96;100.00
19447;BME280;9862;49.462;11.054;2022-11-28T05:31:16;97845.78;;;7.00;100.00
19447;BME280;9862;49.462;11.054;2022-11-28T05:33:43;97863.03;;;7.17;100.00
19447;BME280;9862;49.462;11.054;2022-11-28T05:36:12;97862.28;;;7.02;100.00
19447;BME280;9862;49.462;11.054;2022-11-28T05:38:39;97874.25;;;6.98;100.00
19447;BME280;9862;49.462;11.054;2022-11-28T05:41:08;97858.63;;;6.81;100.00
19447;BME280;9862;49.462;11.054;2022-11-28T05:43:34;97857.38;;;6.77;100.00
19447;BME280;9862;49.462;11.054;2022-11-28T05:46:03;97847.19;;;6.96;100.00
19447;BME280;9862;49.462;11.054;2022-11-28T05:48:29;97838.91;;;6.84;100.00
19447;BME280;9862;49.462;11.054;2022-11-28T05:50:56;97820.97;;;6.79;100.00
19447;BME280;9862;49.462;11.054;2022-11-28T05:53:23;97812.03;;;6.59;100.00
19447;BME280;9862;49.462;11.054;2022-11-28T05:55:50;97788.88;;;7.80;100.00
19447;BME280;9862;49.462;11.054;2022-11-28T05:58:18;97780.19;;;8.53;100.00
19447;BME280;9862;49.462;11.054;2022-11-28T06:00:45;97777.72;;;8.58;100.00
19447;BME280;9862;49.462;11.054;2022-11-28T06:03:11;97772.59;;;8.37;100.00
19447;BME280;9862;49.462;11.054;2022-11-28T06:05:39;97774.31;;;8.03;100.00
19447;BME280;9862;49.462;11.054;2022-11-28T06:08:06;97818.56;;;7.68;100.00
19447;BME280;9862;49.462;11.054;2022-11-28T06:10:33;97869.81;;;7.26;100.00
19447;BME280;9862;49.462;11.054;2022-11-28T06:13:00;97881.22;;;6.84;100.00
19447;BME280;9862;49.462;11.054;2022-11-28T06:15:29;97874.88;;;6.78;100.00
19447;BME280;9862;49.462;11.054;2022-11-28T06:17:55;97878.75;;;6.61;100.00
19447;BME280;9862;49.462;11.054;2022-11-28T06:20:22;97865.94;;;6.58;100.00
19447;BME280;9862;49.462;11.054;2022-11-28T06:22:49;97860.44;;;6.59;100.00
19447;BME280;9862;49.462;11.054;2022-11-28T06:25:15;97863.84;;;6.75;100.00
19447;BME280;9862;49.462;11.054;2022-11-28T06:27:42;97859.94;;;6.92;100.00
19447;BME280;9862;49.462;11.054;2022-11-28T06:30:09;97857.75;;;6.96;100.00
19447;BME280;9862;49.462;11.054;2022-11-28T06:32:37;97872.84;;;7.02;100.00
19447;BME280;9862;49.462;11.054;2022-11-28T06:35:04;97860.00;;;6.99;100.00
19447;BME280;9862;49.462;11.054;2022-11-28T06:37:31;97853.44;;;6.95;100.00
19447;BME280;9862;49.462;11.054;2022-11-28T06:39:57;97865.69;;;6.96;100.00
19447;BME280;9862;49.462;11.054;2022-11-28T06:42:24;97862.41;;;6.94;100.00
19447;BME280;9862;49.462;11.054;2022-11-28T06:44:51;97876.09;;;6.97;100.00
19447;BME280;9862;49.462;11.054;2022-11-28T06:47:18;97881.25;;;7.05;100.00
19447;BME280;9862;49.462;11.054;2022-11-28T06:49:47;97885.84;;;7.18;100.00
19447;BME280;9862;49.462;11.054;2022-11-28T06:52:13;97885.31;;;7.29;100.00
19447;BME280;9862;49.462;11.054;2022-11-28T06:54:40;97878.88;;;7.38;100.00
19447;BME280;9862;49.462;11.054;2022-11-28T06:57:07;97876.22;;;7.38;100.00
19447;BME280;9862;49.462;11.054;2022-11-28T06:59:34;97863.59;;;7.40;100.00
19447;BME280;9862;49.462;11.054;2022-11-28T07:02:01;97862.78;;;7.40;100.00
19447;BME280;9862;49.462;11.054;2022-11-28T07:04:27;97879.06;;;7.37;100.00
19447;BME280;9862;49.462;11.054;2022-11-28T07:06:55;97886.94;;;7.30;100.00
19447;BME280;9862;49.462;11.054;2022-11-28T07:09:22;97878.19;;;7.30;100.00
19447;BME280;9862;49.462;11.054;2022-11-28T07:11:49;97846.34;;;7.44;100.00
19447;BME280;9862;49.462;11.054;2022-11-28T07:14:16;97850.00;;;7.43;100.00
19447;BME280;9862;49.462;11.054;2022-11-28T07:16:42;97854.63;;;7.63;100.00
19447;BME280;9862;49.462;11.054;2022-11-28T07:19:10;97849.34;;;7.41;100.00
19447;BME280;9862;49.462;11.054;2022-11-28T07:21:38;97844.78;;;7.29;100.00
19447;BME280;9862;49.462;11.054;2022-11-28T07:24:07;97852.41;;;7.38;100.00
19447;BME280;9862;49.462;11.054;2022-11-28T07:26:33;97858.63;;;7.24;100.00
19447;BME280;9862;49.462;11.054;2022-11-28T07:29:02;97859.09;;;7.13;100.00
19447;BME280;9862;49.462;11.054;2022-11-28T07:31:31;97870.69;;;7.12;100.00
19447;BME280;9862;49.462;11.054;2022-11-28T07:34:00;97867.25;;;7.11;100.00
19447;BME280;9862;49.462;11.054;2022-11-28T07:36:27;97862.41;;;7.15;100.00
19447;BME280;9862;49.462;11.054;2022-11-28T07:38:56;97854.50;;;7.22;100.00
19447;BME280;9862;49.462;11.054;2022-11-28T07:41:25;97877.28;;;7.16;100.00
19447;BME280;9862;49.462;11.054;2022-11-28T07:43:54;97877.28;;;7.16;100.00
19447;BME280;9862;49.462;11.054;2022-11-28T07:46:21;97890.69;;;7.14;100.00
19447;BME280;9862;49.462;11.054;2022-11-28T07:48:48;97898.69;;;7.21;100.00
19447;BME280;9862;49.462;11.054;2022-11-28T07:51:16;97893.66;;;7.26;100.00
19447;BME280;9862;49.462;11.054;2022-11-28T07:53:43;97885.09;;;7.24;100.00
19447;BME280;9862;49.462;11.054;2022-11-28T07:56:13;97883.91;;;7.33;100.00
19447;BME280;9862;49.462;11.054;2022-11-28T07:58:43;97877.47;;;7.14;100.00
19447;BME280;9862;49.462;11.054;2022-11-28T08:01:13;97868.44;;;7.09;100.00
19447;BME280;9862;49.462;11.054;2022-11-28T08:03:40;97865.69;;;6.96;100.00
19447;BME280;9862;49.462;11.054;2022-11-28T08:06:07;97872.84;;;7.02;100.00
19447;BME280;9862;49.462;11.054;2022-11-28T08:08:34;97874.91;;;7.28;100.00
19447;BME280;9862;49.462;11.054;2022-11-28T08:11:03;97869.94;;;7.18;100.00
19447;BME280;9862;49.462;11.054;2022-11-28T08:13:30;97862.56;;;7.13;100.00
19447;BME280;9862;49.462;11.054;2022-11-28T08:16:02;97875.56;;;7.08;100.00
19447;BME280;9862;49.462;11.054;2022-11-28T08:18:29;97883.13;;;7.11;100.00
19447;BME280;9862;49.462;11.054;2022-11-28T08:21:02;97891.00;;;7.05;100.00
19447;BME280;9862;49.462;11.054;2022-11-28T08:23:28;97879.41;;;7.06;100.00
19447;BME280;9862;49.462;11.054;2022-11-28T08:25:55;97879.84;;;7.09;100.00
19447;BME280;9862;49.462;11.054;2022-11-28T08:28:22;97884.44;;;7.01;100.00
19447;BME280;9862;49.462;11.054;2022-11-28T08:30:48;97865.72;;;7.02;100.00
19447;BME280;9862;49.462;11.054;2022-11-28T08:33:16;97880.03;;;7.08;100.00
19447;BME280;9862;49.462;11.054;2022-11-28T08:35:43;97861.75;;;7.13;100.00
19447;BME280;9862;49.462;11.054;2022-11-28T08:38:09;97865.06;;;7.15;100.00
19447;BME280;9862;49.462;11.054;2022-11-28T08:40:36;97870.09;;;7.10;100.00
19447;BME280;9862;49.462;11.054;2022-11-28T08:43:03;97871.53;;;7.12;100.00
19447;BME280;9862;49.462;11.054;2022-11-28T08:45:30;97866.88;;;7.14;100.00
19447;BME280;9862;49.462;11.054;2022-11-28T08:47:57;97864.66;;;7.18;100.00
19447;BME280;9862;49.462;11.054;2022-11-28T08:50:25;97869.84;;;7.05;100.00
19447;BME280;9862;49.462;11.054;2022-11-28T08:52:52;97863.78;;;7.11;100.00
19447;BME280;9862;49.462;11.054;2022-11-28T08:55:19;97882.94;;;7.13;100.00
19447;BME280;9862;49.462;11.054;2022-11-28T08:57:45;97876.13;;;7.25;100.00
19447;BME280;9862;49.462;11.054;2022-11-28T09:00:13;97877.75;;;7.26;100.00
19447;BME280;9862;49.462;11.054;2022-11-28T09:02:40;97880.97;;;7.22;100.00
19447;BME280;9862;49.462;11.054;2022-11-28T09:05:07;97875.13;;;7.26;100.00
19447;BME280;9862;49.462;11.054;2022-11-28T09:07:35;97873.31;;;7.33;100.00
19447;BME280;9862;49.462;11.054;2022-11-28T09:10:02;97868.88;;;7.34;100.00
19447;BME280;9862;49.462;11.054;2022-11-28T09:12:29;97871.53;;;7.40;100.00
19447;BME280;9862;49.462;11.054;2022-11-28T09:14:56;97870.53;;;7.41;100.00
19447;BME280;9862;49.462;11.054;2022-11-28T09:17:23;97868.97;;;7.47;100.00
19447;BME280;9862;49.462;11.054;2022-11-28T09:19:49;97860.19;;;7.46;100.00
19447;BME280;9862;49.462;11.054;2022-11-28T09:22:16;97870.78;;;7.46;100.00
19447;BME280;9862;49.462;11.054;2022-11-28T09:24:44;97860.13;;;7.40;100.00
19447;BME280;9862;49.462;11.054;2022-11-28T09:27:11;97864.88;;;7.44;100.00
19447;BME280;9862;49.462;11.054;2022-11-28T09:29:37;97864.91;;;7.51;100.00
19447;BME280;9862;49.462;11.054;2022-11-28T09:32:04;97859.81;;;7.50;100.00
19447;BME280;9862;49.462;11.054;2022-11-28T09:34:31;97857.16;;;7.50;100.00
19447;BME280;9862;49.462;11.054;2022-11-28T09:36:58;97852.53;;;7.58;100.00
19447;BME280;9862;49.462;11.054;2022-11-28T09:39:25;97845.22;;;7.60;100.00
19447;BME280;9862;49.462;11.054;2022-11-28T09:42:01;97852.00;;;7.69;100.00
19447;BME280;9862;49.462;11.054;2022-11-28T09:44:36;97856.91;;;7.72;100.00
19447;BME280;9862;49.462;11.054;2022-11-28T09:47:11;97852.78;;;7.63;100.00
19447;BME280;9862;49.462;11.054;2022-11-28T09:49:43;97854.63;;;7.63;100.00
19447;BME280;9862;49.462;11.054;2022-11-28T09:52:22;97844.84;;;7.70;100.00
19447;BME280;9862;49.462;11.054;2022-11-28T09:54:55;97848.78;;;7.74;100.00
19447;BME280;9862;49.462;11.054;2022-11-28T09:57:32;97854.88;;;7.74;100.00
19447;BME280;9862;49.462;11.054;2022-11-28T10:00:00;97851.28;;;7.82;100.00
19447;BME280;9862;49.462;11.054;2022-11-28T10:02:30;97847.25;;;7.93;100.00
19447;BME280;9862;49.462;11.054;2022-11-28T10:05:04;97837.22;;;7.88;100.00
19447;BME280;9862;49.462;11.054;2022-11-28T10:07:45;97848.88;;;7.94;100.00
19447;BME280;9862;49.462;11.054;2022-11-28T10:10:21;97845.16;;;7.88;100.00
19447;BME280;9862;49.462;11.054;2022-11-28T10:12:59;97849.44;;;7.83;100.00
19447;BME280;9862;49.462;11.054;2022-11-28T10:15:39;97849.59;;;7.81;100.00
19447;BME280;9862;49.462;11.054;2022-11-28T10:18:20;97862.22;;;7.79;100.00
19447;BME280;9862;49.462;11.054;2022-11-28T10:20:54;97852.66;;;7.78;100.00
19447;BME280;9862;49.462;11.054;2022-11-28T10:23:25;97858.41;;;7.82;100.00
19447;BME280;9862;49.462;11.054;2022-11-28T10:25:56;97852.53;;;7.93;100.00
19447;BME280;9862;49.462;11.054;2022-11-28T10:28:28;97849.50;;;7.96;100.00
19447;BME280;9862;49.462;11.054;2022-11-28T10:31:00;97852.38;;;8.01;100.00
19447;BME280;9862;49.462;11.054;2022-11-28T10:33:29;97842.81;;;8.07;100.00
19447;BME280;9862;49.462;11.054;2022-11-28T10:36:00;97850.81;;;8.13;100.00
19447;BME280;9862;49.462;11.054;2022-11-28T10:38:30;97848.59;;;8.23;100.00
19447;BME280;9862;49.462;11.054;2022-11-28T10:41:02;97848.63;;;8.30;100.00
19447;BME280;9862;49.462;11.054;2022-11-28T10:43:37;97835.97;;;8.25;100.00
19447;BME280;9862;49.462;11.054;2022-11-28T10:46:22;97834.13;;;8.26;100.00
19447;BME280;9862;49.462;11.054;2022-11-28T10:48:57;97833.34;;;8.32;100.00
19447;BME280;9862;49.462;11.054;2022-11-28T10:51:34;97835.75;;;8.27;100.00
19447;BME280;9862;49.462;11.054;2022-11-28T10:54:18;97844.31;;;8.29;100.00
19447;BME280;9862;49.462;11.054;2022-11-28T10:56:56;97861.69;;;8.31;100.00
19447;BME280;9862;49.462;11.054;2022-11-28T10:59:35;97852.50;;;8.34;100.00
19447;BME280;9862;49.462;11.054;2022-11-28T11:02:19;97849.63;;;8.29;100.00
19447;BME280;9862;49.462;11.054;2022-11-28T11:04:46;97836.00;;;8.32;100.00
19447;BME280;9862;49.462;11.054;2022-11-28T11:07:15;97839.03;;;8.29;100.00
19447;BME280;9862;49.462;11.054;2022-11-28T11:09:44;97850.28;;;8.31;100.00
19447;BME280;9862;49.462;11.054;2022-11-28T11:12:18;97851.97;;;8.45;100.00
19447;BME280;9862;49.462;11.054;2022-11-28T11:14:47;97859.09;;;8.45;100.00
19447;BME280;9862;49.462;11.054;2022-11-28T11:17:27;97853.41;;;8.41;100.00
19447;BME280;9862;49.462;11.054;2022-11-28T11:19:57;97841.78;;;8.42;100.00
19447;BME280;9862;49.462;11.054;2022-11-28T11:22:25;97836.88;;;8.46;100.00
19447;BME280;9862;49.462;11.054;2022-11-28T11:25:12;97840.16;;;8.54;100.00
19447;BME280;9862;49.462;11.054;2022-11-28T11:27:46;97836.50;;;8.62;100.00
19447;BME280;9862;49.462;11.054;2022-11-28T11:30:24;97838.16;;;8.70;100.00
19447;BME280;9862;49.462;11.054;2022-11-28T11:32:51;97831.44;;;8.74;100.00
19447;BME280;9862;49.462;11.054;2022-11-28T11:35:21;97834.50;;;8.71;100.00
19447;BME280;9862;49.462;11.054;2022-11-28T11:37:49;97831.44;;;8.74;100.00
19447;BME280;9862;49.462;11.054;2022-11-28T11:40:20;97827.34;;;8.71;100.00
19447;BME280;9862;49.462;11.054;2022-11-28T11:42:52;97816.75;;;8.71;100.00
19447;BME280;9862;49.462;11.054;2022-11-28T11:45:27;97837.75;;;8.59;100.00
19447;BME280;9862;49.462;11.054;2022-11-28T11:47:55;97832.03;;;8.63;100.00
19447;BME280;9862;49.462;11.054;2022-11-28T11:50:23;97829.97;;;8.65;100.00
19447;BME280;9862;49.462;11.054;2022-11-28T11:53:05;97837.13;;;8.64;100.00
19447;BME280;9862;49.462;11.054;2022-11-28T11:55:43;97824.28;;;8.61;100.00
19447;BME280;9862;49.462;11.054;2022-11-28T11:58:16;97838.38;;;8.81;100.00
19447;BME280;9862;49.462;11.054;2022-11-28T12:00:45;97827.56;;;8.70;100.00
19447;BME280;9862;49.462;11.054;2022-11-28T12:03:21;97830.41;;;8.75;100.00
19447;BME280;9862;49.462;11.054;2022-11-28T12:05:52;97828.75;;;8.67;100.00
19447;BME280;9862;49.462;11.054;2022-11-28T12:08:26;97835.53;;;8.70;100.00
19447;BME280;9862;49.462;11.054;2022-11-28T12:11:06;97837.75;;;8.73;100.00
19447;BME280;9862;49.462;11.054;2022-11-28T12:13:35;97832.84;;;8.76;100.00
19447;BME280;9862;49.462;11.054;2022-11-28T12:16:11;97833.09;;;8.81;100.00
19447;BME280;9862;49.462;11.054;2022-11-28T12:18:51;97835.31;;;8.84;100.00
19447;BME280;9862;49.462;11.054;2022-11-28T12:21:29;97823.91;;;8.97;100.00
19447;BME280;9862;49.462;11.054;2022-11-28T12:24:07;97798.59;;;8.88;100.00
19447;BME280;9862;49.462;11.054;2022-11-28T12:26:40;97794.50;;;8.92;100.00
19447;BME280;9862;49.462;11.054;2022-11-28T12:29:19;97793.06;;;8.96;100.00
19447;BME280;9862;49.462;11.054;2022-11-28T12:31:56;97800.44;;;9.01;100.00
19447;BME280;9862;49.462;11.054;2022-11-28T12:34:31;97793.28;;;9.01;100.00
19447;BME280;9862;49.462;11.054;2022-11-28T12:37:11;97786.97;;;9.02;100.00
19447;BME280;9862;49.462;11.054;2022-11-28T12:39:49;97786.75;;;9.10;100.00
19447;BME280;9862;49.462;11.054;2022-11-28T12:42:41;97799.59;;;9.07;100.00
19447;BME280;9862;49.462;11.054;2022-11-28T12:45:18;97801.06;;;9.09;100.00
19447;BME280;9862;49.462;11.054;2022-11-28T12:47:59;97802.28;;;9.00;100.00
19447;BME280;9862;49.462;11.054;2022-11-28T12:50:31;97807.16;;;8.97;100.00
19447;BME280;9862;49.462;11.054;2022-11-28T12:53:14;97800.22;;;8.96;100.00
19447;BME280;9862;49.462;11.054;2022-11-28T12:55:52;97795.34;;;8.99;100.00
19447;BME280;9862;49.462;11.054;2022-11-28T12:58:22;97783.47;;;9.02;100.00
19447;BME280;9862;49.462;11.054;2022-11-28T13:00:57;97782.28;;;8.98;100.00
19447;BME280;9862;49.462;11.054;2022-11-28T13:03:37;97783.47;;;8.95;100.00
19447;BME280;9862;49.462;11.054;2022-11-28T13:06:26;97786.53;;;9.05;100.00
19447;BME280;9862;49.462;11.054;2022-11-28T13:09:19;97784.72;;;8.99;100.00
19447;BME280;9862;49.462;11.054;2022-11-28T13:11:55;97790.63;;;9.01;100.00
19447;BME280;9862;49.462;11.054;2022-11-28T13:14:34;97794.91;;;9.02;100.00
19447;BME280;9862;49.462;11.054;2022-11-28T13:17:14;97787.16;;;9.07;100.00
19447;BME280;9862;49.462;11.054;2022-11-28T13:19:48;97786.75;;;9.10;100.00
19447;BME280;9862;49.462;11.054;2022-11-28T13:22:20;97782.03;;;9.06;100.00